Portada
METAR-TAF:

METAR-TAF

Aeroports :

Danbury Municipal Airport

Danbury, Connecticut, Estats Units d'Amèrica

latitud: 41-22-18N, longitud: 073-29-04W, altitud: 139 m

Observació

L'informe es va fer fa 36 minuts, a les 17:53 UTC
Vent 7 kt del Sud/Sud-Est
Temperatura 25°C
Humitat 65%
Pressió 1023 hPa
Visibilitat: 16.1 km
Cel clar

METAR: KDXR 261753Z 16007KT 10SM CLR 25/18 A3020 RMK AO2 SLP223 T02500178 10250 20144 58009

Hora: 14:29 (18:29 UTC)


TAF: manca

Observacions i pronòstics meteorològics de més de 4000 aeroports (METAR i TAF).

Les estacions disponibles són els punts grocs i vermells al mapa.

Posi el ratolí al punt desitjat per veure el nom de l'estació.

Feu clic per veure les observacions i els pronòstics meteorològics.

Per canviar el mapa: feu clic els botons verds amb una creu de color negre per apropar; al botó verd amb un guió per allunyar la imatge; o en les fletxes verdes per a mapes adjacents.


METAR-TAF: